Time;durP1;ratioP1;P1;durP2;ratioP2;P2;SDS_P1;SDS_P2;PMS_P1;PMS_P2;Temp;Humidity;BMP_temperature;BMP_pressure;BME280_temperature;BME280_humidity;BME280_pressure;Samples;Min_cycle;Max_cycle;Signal;HPM_P1;HPM_P2
2022/01/25 00:09:59;;;;;;;7.60;4.30;;;3.90;99.90;;;;;;5066070;28;20251;-68
2022/01/25 00:15:13;;;;;;;5.10;4.65;;;4.00;99.90;;;;;;5069936;28;20236;-67
2022/01/25 00:26:04;;;;;;;4.38;3.97;;;4.00;99.90;;;;;;5056504;28;20592;-68
2022/01/25 00:28:44;;;;;;;5.85;5.15;;;4.00;99.90;;;;;;5068813;28;20692;-68
2022/01/25 00:31:13;;;;;;;5.80;5.03;;;3.90;99.90;;;;;;5068934;28;20201;-68
2022/01/25 00:33:42;;;;;;;6.07;5.47;;;4.00;99.90;;;;;;5066072;28;20638;-68
2022/01/25 00:36:11;;;;;;;3.90;3.60;;;3.90;99.90;;;;;;5069431;28;20230;-68
2022/01/25 00:38:38;;;;;;;7.20;4.65;;;4.00;99.90;;;;;;5068482;28;20206;-68
2022/01/25 00:41:06;;;;;;;10.00;6.65;;;4.00;99.90;;;;;;5067468;28;20263;-68
2022/01/25 00:43:33;;;;;;;6.55;6.05;;;3.90;99.90;;;;;;5068446;28;20440;-68
2022/01/25 00:46:04;;;;;;;11.52;5.40;;;3.90;99.90;;;;;;5069214;28;20221;-68
2022/01/25 00:48:42;;;;;;;7.80;6.07;;;4.00;99.90;;;;;;5068305;28;20201;-67
2022/01/25 00:51:23;;;;;;;4.22;3.75;;;4.00;99.90;;;;;;5068754;28;20201;-68
2022/01/25 00:53:55;;;;;;;4.55;4.15;;;4.00;99.90;;;;;;5065117;28;20746;-68
2022/01/25 00:56:24;;;;;;;3.63;3.30;;;4.00;99.90;;;;;;5066881;28;20260;-68
2022/01/25 00:58:51;;;;;;;7.65;5.68;;;4.00;99.90;;;;;;5059227;28;20215;-68
2022/01/25 01:01:18;;;;;;;5.15;4.65;;;4.00;99.90;;;;;;5076356;28;20748;-67
2022/01/25 01:03:45;;;;;;;5.45;4.95;;;4.00;99.90;;;;;;5069108;28;20204;-67
2022/01/25 01:06:12;;;;;;;6.25;5.50;;;4.00;99.90;;;;;;5069046;28;20248;-68
2022/01/25 01:08:39;;;;;;;5.95;5.38;;;4.00;99.90;;;;;;5058969;28;20241;-68
2022/01/25 01:11:10;;;;;;;4.53;4.13;;;4.00;99.90;;;;;;5067939;28;20232;-68
2022/01/25 01:13:52;;;;;;;4.90;4.45;;;3.90;99.90;;;;;;5079604;28;20239;-68
2022/01/25 01:16:48;;;;;;;4.68;4.28;;;3.90;99.90;;;;;;5069521;28;20232;-68
2022/01/25 01:30:29;;;;;;;6.10;5.25;;;3.90;99.90;;;;;;5077531;28;20255;-68
2022/01/25 01:33:22;;;;;;;6.70;4.25;;;3.90;99.90;;;;;;5076937;28;20224;-69
2022/01/25 01:36:27;;;;;;;3.88;3.53;;;3.90;99.90;;;;;;5068016;28;20695;-67
2022/01/25 01:44:27;;;;;;;9.57;5.18;;;3.80;99.90;;;;;;5057683;28;20266;-68
2022/01/25 01:47:06;;;;;;;8.55;6.00;;;3.90;99.90;;;;;;5068266;28;20205;-68
2022/01/25 01:49:39;;;;;;;5.72;5.13;;;3.90;99.90;;;;;;5061180;28;20207;-67
2022/01/25 01:52:07;;;;;;;6.53;5.28;;;3.90;99.90;;;;;;5068229;28;20278;-68
2022/01/25 01:54:33;;;;;;;4.60;4.28;;;3.90;99.90;;;;;;5067350;28;20260;-67
2022/01/25 01:57:00;;;;;;;6.20;5.57;;;3.90;99.90;;;;;;5066185;28;20201;-68
2022/01/25 01:59:27;;;;;;;4.95;4.53;;;3.90;99.90;;;;;;5068339;28;20282;-67
2022/01/25 02:01:55;;;;;;;5.10;4.70;;;3.90;99.90;;;;;;5069169;28;20194;-68
2022/01/25 02:04:22;;;;;;;7.93;7.22;;;3.90;99.90;;;;;;5068238;28;20213;-68
2022/01/25 02:06:49;;;;;;;5.80;5.35;;;3.90;99.90;;;;;;5068486;28;20740;-68
2022/01/25 02:09:15;;;;;;;5.68;5.18;;;3.90;99.90;;;;;;5067364;28;20203;-67
2022/01/25 02:11:43;;;;;;;5.57;5.07;;;3.90;99.90;;;;;;5069953;28;20213;-67
2022/01/25 02:14:12;;;;;;;5.32;4.85;;;3.90;99.90;;;;;;5071012;28;20239;-67
2022/01/25 02:16:56;;;;;;;7.45;5.40;;;3.90;99.90;;;;;;5071512;28;20202;-68
2022/01/25 02:22:26;;;;;;;5.25;4.75;;;3.90;99.90;;;;;;5066718;28;20217;-68
2022/01/25 02:24:53;;;;;;;4.93;4.50;;;3.90;99.90;;;;;;5073221;28;20300;-68
2022/01/25 02:27:20;;;;;;;5.38;4.88;;;3.80;99.90;;;;;;5069539;28;20209;-68
2022/01/25 02:29:46;;;;;;;5.60;5.10;;;3.80;99.90;;;;;;5061787;28;20210;-68
2022/01/25 02:32:13;;;;;;;5.25;4.57;;;3.80;99.90;;;;;;5070072;28;20220;-68
2022/01/25 02:34:40;;;;;;;4.65;4.25;;;3.80;99.90;;;;;;5072303;28;20303;-68
2022/01/25 02:37:11;;;;;;;5.75;5.28;;;3.80;99.90;;;;;;5065592;28;20201;-68
2022/01/25 02:39:39;;;;;;;5.35;4.90;;;3.80;99.90;;;;;;5065099;28;20202;-68
2022/01/25 02:42:07;;;;;;;6.00;5.40;;;3.80;99.90;;;;;;5068870;28;20734;-68
2022/01/25 02:44:35;;;;;;;4.25;3.85;;;3.70;99.90;;;;;;5065072;28;20241;-68
2022/01/25 02:49:46;;;;;;;5.43;4.55;;;3.70;99.90;;;;;;5065146;28;20220;-68
2022/01/25 02:52:14;;;;;;;6.38;4.57;;;3.70;99.90;;;;;;5067493;28;20212;-67
2022/01/25 02:54:41;;;;;;;5.65;4.88;;;3.70;99.90;;;;;;5067007;28;20243;-68
2022/01/25 02:57:08;;;;;;;6.38;5.78;;;3.70;99.90;;;;;;5066038;28;20209;-68
2022/01/25 02:59:35;;;;;;;5.13;4.63;;;3.70;99.90;;;;;;5067809;28;20198;-68
2022/01/25 03:02:02;;;;;;;5.43;5.05;;;3.60;99.90;;;;;;5070549;28;20229;-68
2022/01/25 03:04:29;;;;;;;5.68;4.20;;;3.60;99.90;;;;;;5068308;28;20243;-68
2022/01/25 03:06:56;;;;;;;5.97;5.25;;;3.60;99.90;;;;;;5070303;28;20284;-69
2022/01/25 03:09:24;;;;;;;5.63;5.13;;;3.70;99.90;;;;;;5070118;28;20201;-68
2022/01/25 03:11:53;;;;;;;4.82;4.45;;;3.60;99.90;;;;;;5070733;28;20198;-68
2022/01/25 03:14:22;;;;;;;5.25;4.78;;;3.60;99.90;;;;;;5070731;28;20274;-68
2022/01/25 03:17:05;;;;;;;9.70;5.57;;;3.60;99.90;;;;;;5071161;28;20209;-67
2022/01/25 03:19:47;;;;;;;5.55;4.82;;;3.60;99.90;;;;;;5066493;28;20208;-68
2022/01/25 03:22:18;;;;;;;4.80;4.40;;;3.50;99.90;;;;;;5069715;28;20229;-68
2022/01/25 03:24:47;;;;;;;6.90;5.47;;;3.50;99.90;;;;;;5070562;28;20677;-68
2022/01/25 03:27:13;;;;;;;5.18;4.65;;;3.50;99.90;;;;;;5070341;28;20725;-67
2022/01/25 03:29:40;;;;;;;7.20;5.80;;;3.50;99.90;;;;;;5070378;28;20206;-68
2022/01/25 03:32:07;;;;;;;6.70;6.20;;;3.50;99.90;;;;;;5068321;28;20228;-67
2022/01/25 03:34:34;;;;;;;5.90;5.32;;;3.60;99.90;;;;;;5064540;28;20668;-67
2022/01/25 03:37:01;;;;;;;6.35;5.70;;;3.50;99.90;;;;;;5062042;28;20206;-68
2022/01/25 03:39:27;;;;;;;5.95;4.70;;;3.60;99.90;;;;;;5069838;28;20198;-68
2022/01/25 03:41:56;;;;;;;4.70;4.35;;;3.60;99.90;;;;;;5062916;28;20996;-69
2022/01/25 03:44:23;;;;;;;7.13;6.43;;;3.60;99.90;;;;;;5069559;28;20221;-68
2022/01/25 03:47:04;;;;;;;6.45;5.88;;;3.50;99.90;;;;;;5070145;28;20209;-68
2022/01/25 03:49:50;;;;;;;4.07;3.75;;;3.60;99.90;;;;;;5059803;28;20197;-68
2022/01/25 03:52:23;;;;;;;5.65;4.90;;;3.50;99.90;;;;;;5069882;28;20212;-66
2022/01/25 03:54:50;;;;;;;5.57;5.03;;;3.50;99.90;;;;;;5069770;28;20305;-67
2022/01/25 03:57:18;;;;;;;6.72;4.90;;;3.50;99.90;;;;;;5057260;28;20258;-68
2022/01/25 03:59:46;;;;;;;6.45;5.05;;;3.60;99.90;;;;;;5067935;28;20205;-68
2022/01/25 04:02:13;;;;;;;8.35;4.30;;;3.60;99.90;;;;;;5070338;28;20205;-67
2022/01/25 04:04:40;;;;;;;5.47;4.45;;;3.60;99.90;;;;;;5070180;28;20221;-68
2022/01/25 04:07:10;;;;;;;5.45;4.90;;;3.60;99.90;;;;;;5070324;28;20198;-67
2022/01/25 04:09:38;;;;;;;4.90;4.07;;;3.60;99.90;;;;;;5069800;28;20201;-69
2022/01/25 04:12:06;;;;;;;14.68;6.78;;;3.60;99.90;;;;;;5070775;28;20220;-68
2022/01/25 04:14:34;;;;;;;5.57;4.28;;;3.70;99.90;;;;;;5069589;28;20305;-67
2022/01/25 04:17:04;;;;;;;9.27;5.60;;;3.70;99.90;;;;;;5070335;28;20875;-69
2022/01/25 04:19:36;;;;;;;5.38;4.93;;;3.70;99.90;;;;;;5071102;28;20201;-67
2022/01/25 04:25:10;;;;;;;9.30;4.32;;;3.60;99.90;;;;;;5069200;28;20228;-69
2022/01/25 04:27:38;;;;;;;5.22;4.72;;;3.60;99.90;;;;;;5057105;28;20216;-69
2022/01/25 04:30:08;;;;;;;8.10;5.60;;;3.70;99.90;;;;;;5068085;28;20201;-70
2022/01/25 04:32:42;;;;;;;6.03;5.53;;;3.60;99.90;;;;;;5069308;28;20263;-68
2022/01/25 04:35:14;;;;;;;9.13;6.60;;;3.60;99.90;;;;;;5067635;28;20533;-68
2022/01/25 04:48:57;;;;;;;6.43;5.22;;;3.60;99.90;;;;;;5065516;28;20690;-67
2022/01/25 04:51:41;;;;;;;6.80;5.95;;;3.60;99.90;;;;;;5056937;28;20230;-68
2022/01/25 04:54:15;;;;;;;6.38;4.68;;;3.60;99.90;;;;;;5061992;28;20221;-67
2022/01/25 04:56:48;;;;;;;7.00;6.30;;;3.60;99.90;;;;;;5068266;28;20227;-68
2022/01/25 04:59:26;;;;;;;5.57;5.05;;;3.60;99.90;;;;;;5068564;28;20729;-67
2022/01/25 05:02:01;;;;;;;9.05;6.47;;;3.60;99.90;;;;;;5062216;28;20209;-69
2022/01/25 05:04:32;;;;;;;5.50;4.80;;;3.70;99.90;;;;;;5068814;28;20220;-68
2022/01/25 05:07:09;;;;;;;5.70;5.18;;;3.70;99.90;;;;;;5069295;28;20209;-67
2022/01/25 05:09:37;;;;;;;6.03;4.90;;;3.70;99.90;;;;;;5068405;28;20221;-68
2022/01/25 05:12:05;;;;;;;6.07;5.47;;;3.70;99.90;;;;;;5068889;28;20202;-67
2022/01/25 05:14:35;;;;;;;6.13;4.88;;;3.70;99.90;;;;;;5069095;28;20228;-66
2022/01/25 05:17:05;;;;;;;5.47;3.95;;;3.70;99.90;;;;;;5061976;28;20205;-68
2022/01/25 05:22:23;;;;;;;6.57;5.05;;;3.70;99.90;;;;;;5069927;28;20204;-67
2022/01/25 05:24:52;;;;;;;7.80;5.85;;;3.70;99.90;;;;;;5057219;28;20232;-67
2022/01/25 05:27:21;;;;;;;5.65;5.15;;;3.70;99.90;;;;;;5068817;28;20220;-68
2022/01/25 05:29:47;;;;;;;6.38;5.78;;;3.70;99.90;;;;;;5066783;28;20716;-67
2022/01/25 05:32:16;;;;;;;6.60;5.07;;;3.60;99.90;;;;;;5060444;28;20700;-68
2022/01/25 05:34:43;;;;;;;9.27;6.93;;;3.70;99.90;;;;;;5068908;28;20270;-67
2022/01/25 05:37:09;;;;;;;6.53;5.07;;;3.70;99.90;;;;;;5068180;28;20230;-67
2022/01/25 05:39:38;;;;;;;6.65;5.65;;;3.70;99.90;;;;;;5050756;28;20575;-68
2022/01/25 05:42:33;;;;;;;6.47;5.07;;;3.60;99.90;;;;;;5065212;28;20232;-67
2022/01/25 05:45:13;;;;;;;5.70;5.05;;;3.70;99.90;;;;;;5065451;28;20209;-67
2022/01/25 05:47:43;;;;;;;8.90;7.00;;;3.70;99.90;;;;;;5071339;28;20732;-68
2022/01/25 05:50:12;;;;;;;8.05;5.60;;;3.70;99.90;;;;;;5070307;28;20204;-66
2022/01/25 05:52:39;;;;;;;7.07;5.90;;;3.70;99.90;;;;;;5073944;28;20197;-67
2022/01/25 05:55:07;;;;;;;8.48;6.45;;;3.70;99.90;;;;;;5095601;22;20225;-65
2022/01/25 05:57:34;;;;;;;5.80;5.20;;;3.70;99.90;;;;;;5086391;28;20208;-65
2022/01/25 06:00:01;;;;;;;8.02;5.00;;;3.70;99.90;;;;;;5087435;28;20216;-63
2022/01/25 06:02:30;;;;;;;5.50;4.97;;;3.70;99.90;;;;;;5086131;28;20245;-63
2022/01/25 06:04:58;;;;;;;8.00;6.53;;;3.70;99.90;;;;;;5086461;28;20330;-64
2022/01/25 06:07:26;;;;;;;7.53;5.75;;;3.70;99.90;;;;;;5069505;28;20202;-66
2022/01/25 06:09:53;;;;;;;6.07;5.15;;;3.70;99.90;;;;;;5073175;28;20302;-68
2022/01/25 06:12:20;;;;;;;9.52;6.20;;;3.70;99.90;;;;;;5088647;28;20220;-65
2022/01/25 06:14:46;;;;;;;8.13;5.90;;;3.60;99.90;;;;;;5092461;28;20209;-66
2022/01/25 06:17:13;;;;;;;8.10;5.63;;;3.60;99.90;;;;;;5078890;28;20202;-66
2022/01/25 06:19:40;;;;;;;6.60;5.63;;;3.60;99.90;;;;;;5064848;28;20276;-65
2022/01/25 06:22:08;;;;;;;7.82;5.63;;;3.60;99.90;;;;;;5068456;28;20205;-65
2022/01/25 06:24:37;;;;;;;9.63;6.97;;;3.60;99.90;;;;;;5060751;28;20232;-67
2022/01/25 06:27:04;;;;;;;6.60;6.00;;;3.50;99.90;;;;;;5070750;28;20205;-65
2022/01/25 06:29:31;;;;;;;7.40;6.70;;;3.60;99.90;;;;;;5071882;28;20201;-66
2022/01/25 06:31:59;;;;;;;5.78;5.22;;;3.50;99.90;;;;;;5067716;28;20214;-68
2022/01/25 06:34:25;;;;;;;6.30;5.00;;;3.60;99.90;;;;;;5060567;28;20244;-68
2022/01/25 06:36:52;;;;;;;8.95;7.47;;;3.50;99.90;;;;;;5056738;28;20723;-67
2022/01/25 06:39:20;;;;;;;7.85;6.20;;;3.50;99.90;;;;;;5062015;28;20510;-68
2022/01/25 06:41:47;;;;;;;6.28;5.40;;;3.50;99.90;;;;;;5071005;28;20251;-68
2022/01/25 06:44:14;;;;;;;11.75;5.75;;;3.50;99.90;;;;;;5070658;28;20221;-66
2022/01/25 06:46:41;;;;;;;12.52;8.32;;;3.50;99.90;;;;;;5072925;28;20229;-66
2022/01/25 06:49:07;;;;;;;6.90;6.03;;;3.50;99.90;;;;;;5069642;28;20209;-67
2022/01/25 06:51:34;;;;;;;6.45;5.53;;;3.50;99.90;;;;;;5066397;28;20281;-66
2022/01/25 06:54:01;;;;;;;6.20;5.07;;;3.50;99.90;;;;;;5072840;28;20271;-66
2022/01/25 06:56:29;;;;;;;5.95;5.38;;;3.50;99.90;;;;;;5064784;28;20233;-66
2022/01/25 06:58:55;;;;;;;9.35;7.90;;;3.50;99.90;;;;;;5068804;28;20198;-66
2022/01/25 07:01:22;;;;;;;6.10;4.95;;;3.50;99.90;;;;;;5059034;28;20205;-66
2022/01/25 07:03:49;;;;;;;8.02;6.38;;;3.50;99.90;;;;;;5066957;28;20763;-65
2022/01/25 07:06:16;;;;;;;5.60;5.10;;;3.50;99.90;;;;;;5062652;28;20257;-67
2022/01/25 07:08:45;;;;;;;5.60;5.07;;;3.50;99.90;;;;;;5067501;28;20266;-66
2022/01/25 07:11:12;;;;;;;10.40;5.65;;;3.50;99.90;;;;;;5065939;28;20384;-66
2022/01/25 07:13:40;;;;;;;8.50;6.25;;;3.40;99.90;;;;;;5057229;28;20233;-68
2022/01/25 07:16:06;;;;;;;8.57;7.45;;;3.50;99.90;;;;;;5063481;28;20283;-66
2022/01/25 07:18:33;;;;;;;9.45;6.85;;;3.40;99.90;;;;;;5049528;28;20217;-67
2022/01/25 07:21:00;;;;;;;7.05;5.28;;;3.50;99.90;;;;;;5049351;28;20710;-66
2022/01/25 07:23:27;;;;;;;8.15;7.40;;;3.50;99.90;;;;;;5065689;28;20198;-66
2022/01/25 07:25:53;;;;;;;9.80;6.97;;;3.50;99.90;;;;;;5063312;28;20298;-67
2022/01/25 07:28:20;;;;;;;10.13;7.65;;;3.50;99.90;;;;;;5064242;28;20206;-68
2022/01/25 07:30:48;;;;;;;10.25;7.13;;;3.50;99.90;;;;;;5068197;28;20270;-66
2022/01/25 07:33:15;;;;;;;9.25;8.30;;;3.50;99.90;;;;;;5050201;28;20225;-66
2022/01/25 07:35:41;;;;;;;7.63;6.30;;;3.50;99.90;;;;;;5062835;28;20666;-68
2022/01/25 07:38:08;;;;;;;10.18;8.20;;;3.50;99.90;;;;;;5062124;28;20262;-65
2022/01/25 07:40:37;;;;;;;11.43;6.65;;;3.60;99.90;;;;;;5064882;28;20197;-66
2022/01/25 07:43:04;;;;;;;8.65;6.88;;;3.50;99.90;;;;;;5068915;28;20194;-66
2022/01/25 07:45:35;;;;;;;7.82;5.75;;;3.60;99.90;;;;;;5069337;28;20228;-66
2022/01/25 07:48:03;;;;;;;7.45;6.15;;;3.60;99.90;;;;;;5064751;28;20445;-65
2022/01/25 07:50:30;;;;;;;7.05;6.20;;;3.60;99.90;;;;;;5051742;28;20202;-67
2022/01/25 07:52:57;;;;;;;7.18;5.85;;;3.70;99.90;;;;;;5060603;28;20572;-66
2022/01/25 07:55:23;;;;;;;7.40;6.70;;;3.70;99.90;;;;;;5051336;28;20232;-69
2022/01/25 07:57:50;;;;;;;7.53;6.15;;;3.70;99.90;;;;;;5068225;28;20296;-66
2022/01/25 08:00:17;;;;;;;8.40;6.68;;;3.70;99.90;;;;;;5075560;28;20588;-68
2022/01/25 08:02:44;;;;;;;10.97;8.30;;;3.70;99.90;;;;;;5078363;28;20575;-66
2022/01/25 08:05:14;;;;;;;11.38;7.78;;;3.70;99.90;;;;;;5055168;28;20546;-67
2022/01/25 08:07:41;;;;;;;10.70;6.90;;;3.80;99.90;;;;;;5067766;28;20193;-67
2022/01/25 08:10:08;;;;;;;9.05;5.85;;;3.80;99.90;;;;;;5052755;28;20510;-67
2022/01/25 08:12:35;;;;;;;9.77;6.75;;;3.80;99.90;;;;;;5068690;28;20209;-70
2022/01/25 08:15:03;;;;;;;12.15;7.65;;;3.80;99.90;;;;;;5055504;28;20286;-66
2022/01/25 08:17:30;;;;;;;6.90;6.32;;;3.80;99.90;;;;;;5048860;28;20220;-66
2022/01/25 08:19:57;;;;;;;11.63;8.05;;;3.80;99.90;;;;;;5048516;28;20278;-66
2022/01/25 08:22:25;;;;;;;13.55;8.30;;;3.80;99.90;;;;;;5056292;28;20288;-66
2022/01/25 08:24:52;;;;;;;9.02;7.47;;;3.80;99.90;;;;;;5059881;28;20599;-65
2022/01/25 08:27:22;;;;;;;8.13;7.10;;;3.80;99.90;;;;;;5060670;28;20213;-67
2022/01/25 08:29:49;;;;;;;14.43;9.80;;;3.80;99.90;;;;;;5065468;28;20193;-66
2022/01/25 08:32:16;;;;;;;7.10;6.13;;;3.80;99.90;;;;;;5062858;28;20264;-66
2022/01/25 08:34:42;;;;;;;9.00;5.28;;;3.80;99.90;;;;;;5058762;28;20589;-67
2022/01/25 08:37:09;;;;;;;10.80;6.70;;;3.90;99.90;;;;;;5051284;28;20263;-67
2022/01/25 08:39:38;;;;;;;7.60;6.85;;;3.90;99.90;;;;;;5065163;28;20688;-67
2022/01/25 08:42:05;;;;;;;12.77;8.30;;;3.90;99.90;;;;;;5065289;28;20205;-67
2022/01/25 08:44:32;;;;;;;12.60;9.05;;;3.90;99.90;;;;;;5065722;28;20193;-68
2022/01/25 08:47:00;;;;;;;7.28;6.45;;;3.90;99.90;;;;;;5064433;28;20221;-68
2022/01/25 08:49:27;;;;;;;8.43;6.20;;;3.90;99.90;;;;;;5066047;28;20270;-67
2022/01/25 08:51:54;;;;;;;5.90;5.35;;;3.90;99.90;;;;;;5060880;28;20296;-66
2022/01/25 08:54:21;;;;;;;9.15;6.43;;;3.90;99.90;;;;;;5055158;28;20293;-67
2022/01/25 08:56:49;;;;;;;10.48;8.05;;;3.90;99.90;;;;;;5056525;28;20542;-67
2022/01/25 08:59:16;;;;;;;10.40;7.63;;;3.90;99.90;;;;;;5064491;28;20315;-66
2022/01/25 09:01:42;;;;;;;11.20;7.25;;;4.00;99.90;;;;;;5063816;28;20278;-65
2022/01/25 09:04:09;;;;;;;9.60;8.63;;;4.00;99.90;;;;;;5066650;28;20200;-67
2022/01/25 09:06:36;;;;;;;8.50;6.95;;;4.10;99.90;;;;;;5067155;28;20233;-67
2022/01/25 09:09:07;;;;;;;7.43;6.68;;;4.10;99.90;;;;;;5053581;28;20206;-67
2022/01/25 09:11:35;;;;;;;6.05;5.50;;;4.10;99.90;;;;;;5072483;28;20196;-67
2022/01/25 09:14:04;;;;;;;9.00;8.07;;;4.10;99.90;;;;;;5070575;28;20201;-67
2022/01/25 09:16:30;;;;;;;9.70;8.27;;;4.10;99.90;;;;;;5052647;28;20507;-67
2022/01/25 09:18:57;;;;;;;17.52;8.65;;;4.10;99.90;;;;;;5053816;28;20242;-66
2022/01/25 09:21:24;;;;;;;7.20;6.50;;;4.20;99.90;;;;;;5061152;28;20227;-67
2022/01/25 09:23:51;;;;;;;7.15;5.82;;;4.10;99.90;;;;;;5064710;28;20266;-67
2022/01/25 09:26:18;;;;;;;7.55;6.47;;;4.10;99.90;;;;;;5054249;28;20694;-67
2022/01/25 09:28:45;;;;;;;8.90;6.63;;;4.10;99.90;;;;;;5056065;28;20244;-67
2022/01/25 09:31:13;;;;;;;10.70;6.53;;;4.10;99.90;;;;;;5063343;28;20247;-66
2022/01/25 09:33:39;;;;;;;8.77;7.53;;;4.10;99.90;;;;;;5064596;28;20197;-67
2022/01/25 09:36:06;;;;;;;13.23;6.40;;;4.10;99.90;;;;;;5067030;28;20230;-67
2022/01/25 09:38:33;;;;;;;12.23;8.02;;;4.10;99.90;;;;;;5051931;28;20216;-67
2022/01/25 09:40:59;;;;;;;8.98;6.38;;;4.10;99.90;;;;;;5060349;28;20202;-66
2022/01/25 09:43:28;;;;;;;7.30;5.70;;;4.10;99.90;;;;;;5047419;28;20218;-67
2022/01/25 09:45:54;;;;;;;7.28;5.60;;;4.20;99.90;;;;;;5050681;28;20221;-67
2022/01/25 09:48:23;;;;;;;6.90;6.20;;;4.20;99.90;;;;;;5063976;28;20208;-67
2022/01/25 09:50:50;;;;;;;6.70;5.32;;;4.20;99.90;;;;;;5063954;28;20227;-67
2022/01/25 09:53:17;;;;;;;8.77;7.47;;;4.30;99.90;;;;;;5061212;28;20279;-67
2022/01/25 09:55:45;;;;;;;11.35;6.85;;;4.30;99.90;;;;;;5058907;28;20342;-67
2022/01/25 09:58:13;;;;;;;8.80;7.88;;;4.30;99.90;;;;;;5066676;28;20228;-67
2022/01/25 10:00:42;;;;;;;6.35;5.68;;;4.30;99.90;;;;;;5071999;28;20193;-67
2022/01/25 10:03:15;;;;;;;11.02;7.85;;;4.40;99.90;;;;;;5065434;28;20655;-67
2022/01/25 10:05:45;;;;;;;10.35;9.30;;;4.40;99.90;;;;;;5069855;28;20260;-67
2022/01/25 10:08:14;;;;;;;9.77;7.28;;;4.40;99.90;;;;;;5071285;28;20533;-67
2022/01/25 10:10:42;;;;;;;10.07;8.43;;;4.40;99.90;;;;;;5078111;28;20205;-67
2022/01/25 10:13:12;;;;;;;9.13;6.80;;;4.40;99.90;;;;;;5081219;28;20311;-66
2022/01/25 10:15:38;;;;;;;9.32;6.65;;;4.50;99.90;;;;;;5078862;28;20249;-67
2022/01/25 10:18:06;;;;;;;6.78;6.00;;;4.50;99.90;;;;;;5081638;28;20209;-66
2022/01/25 10:20:34;;;;;;;8.30;6.90;;;4.50;99.90;;;;;;5082034;28;20214;-67
2022/01/25 10:23:08;;;;;;;11.02;7.85;;;4.50;99.90;;;;;;5081431;28;20209;-66
2022/01/25 10:25:37;;;;;;;10.85;7.60;;;4.50;99.90;;;;;;5067159;28;20259;-67
2022/01/25 10:28:11;;;;;;;9.45;8.45;;;4.50;99.90;;;;;;5056951;28;20221;-67
2022/01/25 10:30:46;;;;;;;10.35;7.57;;;4.50;99.90;;;;;;5063942;28;20229;-67
2022/01/25 10:33:28;;;;;;;10.52;7.55;;;4.60;99.90;;;;;;5056914;28;20202;-67
2022/01/25 10:35:55;;;;;;;9.32;6.00;;;4.60;99.90;;;;;;5070807;28;20669;-67
2022/01/25 10:38:27;;;;;;;14.02;8.25;;;4.60;99.90;;;;;;5066891;28;20256;-68
2022/01/25 10:40:56;;;;;;;10.43;8.45;;;4.70;99.90;;;;;;5068246;28;20209;-66
2022/01/25 10:43:24;;;;;;;9.40;8.40;;;4.70;99.90;;;;;;5062027;28;20321;-67
2022/01/25 10:46:15;;;;;;;11.30;7.97;;;4.70;99.90;;;;;;5069133;28;20217;-67
2022/01/25 10:48:44;;;;;;;11.80;7.10;;;4.70;99.90;;;;;;5068643;28;20289;-67
2022/01/25 10:51:13;;;;;;;11.38;8.68;;;4.70;99.90;;;;;;5070033;28;20295;-67
2022/01/25 10:53:41;;;;;;;12.95;8.70;;;4.70;99.90;;;;;;5065511;28;20726;-67
2022/01/25 10:56:09;;;;;;;9.00;8.10;;;4.60;99.90;;;;;;5064252;28;20230;-66
2022/01/25 10:58:41;;;;;;;7.82;6.50;;;4.70;99.90;;;;;;5063268;28;20233;-68
2022/01/25 11:01:10;;;;;;;9.75;6.82;;;4.70;99.90;;;;;;5071698;28;20212;-67
2022/01/25 11:03:39;;;;;;;7.22;6.07;;;4.70;99.90;;;;;;5064525;28;20293;-67
2022/01/25 11:06:11;;;;;;;10.05;9.02;;;4.80;99.90;;;;;;5052231;28;20237;-67
2022/01/25 11:08:39;;;;;;;9.90;7.60;;;4.80;99.90;;;;;;5058936;28;20205;-68
2022/01/25 11:11:10;;;;;;;8.70;6.00;;;4.70;99.90;;;;;;5080626;28;20217;-67
2022/01/25 11:13:40;;;;;;;11.70;8.18;;;4.80;99.90;;;;;;5077217;28;20207;-68
2022/01/25 11:16:09;;;;;;;10.13;6.85;;;4.80;99.90;;;;;;5057060;28;20286;-68
2022/01/25 11:18:37;;;;;;;8.80;7.47;;;4.80;99.90;;;;;;5056273;28;20213;-67
2022/01/25 11:21:05;;;;;;;15.20;9.63;;;4.70;99.90;;;;;;5057677;28;20210;-67
2022/01/25 11:23:34;;;;;;;18.35;8.98;;;4.70;99.90;;;;;;5050485;28;20218;-67
2022/01/25 11:26:02;;;;;;;15.05;6.40;;;4.70;99.90;;;;;;5070426;28;20217;-66
2022/01/25 11:28:32;;;;;;;11.43;6.60;;;4.60;99.90;;;;;;5083796;28;20578;-67
2022/01/25 11:31:01;;;;;;;7.10;4.90;;;4.60;99.90;;;;;;5083236;28;20284;-67
2022/01/25 11:33:31;;;;;;;9.05;6.63;;;4.70;99.90;;;;;;5065377;28;20202;-68
2022/01/25 11:35:58;;;;;;;8.80;6.88;;;4.70;99.90;;;;;;5059257;28;20221;-67
2022/01/25 11:38:46;;;;;;;9.63;7.35;;;4.70;99.90;;;;;;5069235;28;20208;-67
2022/01/25 11:41:15;;;;;;;9.55;8.13;;;4.70;99.90;;;;;;5063657;28;20205;-67
2022/01/25 11:43:45;;;;;;;7.47;6.57;;;4.70;99.90;;;;;;5061760;28;20345;-67
2022/01/25 11:46:12;;;;;;;11.52;7.82;;;4.70;99.90;;;;;;5061775;28;20229;-67
2022/01/25 11:48:43;;;;;;;9.40;6.82;;;4.70;99.90;;;;;;5060497;28;20267;-67
2022/01/25 11:51:16;;;;;;;8.30;7.13;;;4.70;99.90;;;;;;5062640;28;20499;-67
2022/01/25 11:53:45;;;;;;;7.43;6.72;;;4.70;99.90;;;;;;5062479;28;20201;-67
2022/01/25 11:56:13;;;;;;;9.15;6.78;;;4.70;99.90;;;;;;5083220;22;20278;-70
2022/01/25 11:58:41;;;;;;;10.27;7.05;;;4.70;99.90;;;;;;5047791;28;20779;-68
2022/01/25 12:01:17;;;;;;;10.15;6.63;;;4.60;99.90;;;;;;5048348;28;20240;-69
2022/01/25 12:03:46;;;;;;;10.35;6.50;;;4.60;99.90;;;;;;5048654;28;20672;-69
2022/01/25 12:06:19;;;;;;;10.02;6.60;;;4.60;99.90;;;;;;5049545;28;20202;-68
2022/01/25 12:08:53;;;;;;;11.02;6.28;;;4.50;99.90;;;;;;5049754;28;20213;-68
2022/01/25 12:11:28;;;;;;;15.10;9.23;;;4.50;99.90;;;;;;5050086;28;20206;-69
2022/01/25 12:14:11;;;;;;;10.00;8.07;;;4.50;99.90;;;;;;5050833;28;20571;-68
2022/01/25 12:16:43;;;;;;;8.05;6.78;;;4.50;99.90;;;;;;5048910;28;20230;-67
2022/01/25 12:19:11;;;;;;;10.52;6.68;;;4.50;99.90;;;;;;5049623;28;20213;-69
2022/01/25 12:22:01;;;;;;;9.15;6.30;;;4.50;99.90;;;;;;5046906;28;20248;-68
2022/01/25 12:24:32;;;;;;;9.70;7.55;;;4.50;99.90;;;;;;5049279;28;20210;-69
2022/01/25 12:27:06;;;;;;;6.50;5.65;;;4.60;99.90;;;;;;5051286;28;20275;-68
2022/01/25 12:29:36;;;;;;;9.98;7.68;;;4.60;99.90;;;;;;5055074;28;20253;-68
2022/01/25 12:32:23;;;;;;;8.93;7.55;;;4.60;99.90;;;;;;5048921;28;20229;-69
2022/01/25 12:35:04;;;;;;;7.38;5.53;;;4.70;99.90;;;;;;5049535;28;20213;-68
2022/01/25 12:37:55;;;;;;;9.82;6.28;;;4.70;99.90;;;;;;5048671;28;20214;-69
2022/01/25 12:40:31;;;;;;;7.72;5.80;;;4.70;99.90;;;;;;5044985;28;20245;-67
2022/01/25 12:43:00;;;;;;;8.52;7.63;;;4.70;99.90;;;;;;5046052;28;20233;-67
2022/01/25 12:45:29;;;;;;;9.40;7.13;;;4.70;99.90;;;;;;5037188;28;20569;-68
2022/01/25 12:47:59;;;;;;;9.93;7.90;;;4.70;99.90;;;;;;5048616;28;20218;-69
2022/01/25 12:50:26;;;;;;;9.00;7.40;;;4.80;99.90;;;;;;5048196;28;20291;-69
2022/01/25 12:52:53;;;;;;;10.25;7.32;;;4.80;99.90;;;;;;5049182;28;20640;-68
2022/01/25 12:55:25;;;;;;;9.70;6.95;;;4.90;99.90;;;;;;5047843;28;20214;-69
2022/01/25 12:57:53;;;;;;;7.60;6.03;;;4.90;99.90;;;;;;5045535;28;20341;-69
2022/01/25 13:00:22;;;;;;;8.57;6.75;;;4.90;99.90;;;;;;5048348;28;20675;-70
2022/01/25 13:02:49;;;;;;;7.90;5.90;;;5.00;99.90;;;;;;5048248;28;20203;-68
2022/01/25 13:05:19;;;;;;;8.25;6.72;;;5.00;99.90;;;;;;5046212;28;20259;-69
2022/01/25 13:07:46;;;;;;;9.43;6.70;;;5.00;99.90;;;;;;5046666;28;20620;-68
2022/01/25 13:10:24;;;;;;;10.75;7.28;;;4.90;99.90;;;;;;5045228;28;20207;-68
2022/01/25 13:12:58;;;;;;;8.05;7.22;;;4.90;99.90;;;;;;5044161;28;20206;-69
2022/01/25 13:15:52;;;;;;;8.23;6.18;;;4.90;99.90;;;;;;5044544;28;20269;-69
2022/01/25 13:18:19;;;;;;;10.52;7.20;;;4.90;99.90;;;;;;5047255;28;20225;-68
2022/01/25 13:21:00;;;;;;;9.52;6.60;;;4.90;99.90;;;;;;5047089;28;20255;-68
2022/01/25 13:23:26;;;;;;;9.77;7.25;;;4.90;99.90;;;;;;5046963;28;20208;-70
2022/01/25 13:25:55;;;;;;;9.80;5.80;;;4.90;99.90;;;;;;5047609;28;20252;-68
2022/01/25 13:28:36;;;;;;;8.77;6.43;;;4.80;99.90;;;;;;5046524;28;20279;-70
2022/01/25 13:31:07;;;;;;;6.35;5.70;;;4.80;99.90;;;;;;5039367;28;20205;-69
2022/01/25 13:33:34;;;;;;;11.13;7.50;;;4.90;99.90;;;;;;5050036;28;20714;-69
2022/01/25 13:36:03;;;;;;;7.63;6.82;;;4.90;99.90;;;;;;5040867;28;20218;-69
2022/01/25 13:38:32;;;;;;;7.75;5.68;;;4.90;99.90;;;;;;5047167;28;20202;-68
2022/01/25 13:41:15;;;;;;;10.88;6.95;;;4.90;99.90;;;;;;5049810;28;20194;-70
2022/01/25 13:46:31;;;;;;;7.75;6.93;;;4.90;99.90;;;;;;5044877;28;20241;-71
2022/01/25 13:49:00;;;;;;;14.00;9.02;;;4.90;99.90;;;;;;5048325;28;20202;-69
2022/01/25 13:51:36;;;;;;;8.57;6.82;;;4.90;99.90;;;;;;5051099;28;20206;-69
2022/01/25 13:54:04;;;;;;;10.23;8.30;;;4.90;99.90;;;;;;5049024;28;20272;-70
2022/01/25 13:56:33;;;;;;;11.60;8.23;;;4.90;99.90;;;;;;5035878;28;20284;-70
2022/01/25 13:59:02;;;;;;;8.68;7.10;;;5.00;99.90;;;;;;5047202;28;20213;-70
2022/01/25 14:01:31;;;;;;;7.82;7.05;;;5.00;99.90;;;;;;5053556;28;20202;-70
2022/01/25 14:04:00;;;;;;;10.90;7.13;;;5.00;99.90;;;;;;5045135;28;20618;-69
2022/01/25 14:06:31;;;;;;;11.43;8.10;;;5.00;99.90;;;;;;5048307;28;20582;-69
2022/01/25 14:09:05;;;;;;;9.65;7.75;;;5.00;99.90;;;;;;5047847;28;20237;-69
2022/01/25 14:11:39;;;;;;;8.20;6.32;;;5.00;99.90;;;;;;5050532;28;20206;-69